Nocc Pamplona — LALG5 — position and weather

sailwx.info

Track history (hours):
 
Tides and Currents Weather Stations Pressure Air Temp Water Temp Dewpoint Dewpoint Depression Visibility Wind Speed Wind Dir Waves Ship Positions

Nocc Pamplona

Last reported at 2015-Jan-30 04:29 UTC. Time now 2015-Jan-30 04:51 UTC.
Position N 35°25' E 139°43'.

Length 177 m; draft 7.6 m.

Type: Cargo ship. MMSI: 257349000.

Date/timePositionNaut miles runAvg speedWind from/ knotsBaromVisibWave heightAir tempDewpointWater temp
2015-Jan-30 04:29N 35°25' E 139°43'0 0.0
2015-Jan-30 03:32N 35°25' E 139°43'0 0.0
2015-Jan-30 02:32N 35°25' E 139°43'0 0.0
2015-Jan-30 01:32N 35°25' E 139°43'0 0.1
2015-Jan-30 00:32N 35°25' E 139°43'0 0.0
2015-Jan-29 23:32N 35°25' E 139°43'0 0.0
2015-Jan-29 22:32N 35°25' E 139°43'0 0.1
2015-Jan-29 21:32N 35°25' E 139°43'0 0.0
2015-Jan-29 20:32N 35°25' E 139°43'0 0.0
2015-Jan-29 19:32N 35°25' E 139°43'0 0.1
2015-Jan-29 18:32N 35°25' E 139°43'0 0.0
2015-Jan-29 17:32N 35°25' E 139°43'0 0.0
2015-Jan-29 16:32N 35°25' E 139°43'0 0.0
2015-Jan-29 15:32N 35°25' E 139°43'0 0.0
2015-Jan-29 14:32N 35°25' E 139°43'0 0.0
2015-Jan-29 13:32N 35°25' E 139°43'0 0.0
2015-Jan-29 12:32N 35°25' E 139°43'0 0.0
2015-Jan-29 11:29N 35°25' E 139°43'0 0.0
2015-Jan-29 10:32N 35°25' E 139°43'0 0.0
2015-Jan-29 09:32N 35°25' E 139°43'0 0.1
2015-Jan-29 08:33N 35°25' E 139°43'1 1.2
2015-Jan-29 07:34N 35°26' E 139°42'1 1.1
2015-Jan-29 06:32N 35°27' E 139°41'0 0.0
2015-Jan-29 05:32N 35°27' E 139°41'0 0.0
2015-Jan-29 04:32N 35°27' E 139°41'0 0.0
2015-Jan-29 03:32N 35°27' E 139°41'0 0.0
2015-Jan-29 02:32N 35°27' E 139°41'0 0.0
2015-Jan-29 01:32N 35°27' E 139°41'0 0.0
2015-Jan-29 00:26N 35°27' E 139°41'0 0.0
2015-Jan-28 23:32N 35°27' E 139°41'0 0.0
2015-Jan-28 22:32N 35°27' E 139°41'0 0.5
2015-Jan-28 21:33N 35°27' E 139°42'5 5.1
2015-Jan-28 20:33N 35°22' E 139°43'1111.1
2015-Jan-28 19:33N 35°11' E 139°47'9 9.1
2015-Jan-28 18:33N 35°02' E 139°44'1010.4
2015-Jan-28 17:33N 34°53' E 139°39'1613.1
2015-Jan-28 16:21N 34°39' E 139°29'228 7.6
2015-Jan-27 10:09N 33°59' E 134°57'914.8
2015-Jan-27 09:32N 34°09' E 134°58'1515.4
2015-Jan-27 08:33N 34°23' E 135°02'1818.2
2015-Jan-27 07:33N 34°35' E 135°19'5 4.4
2015-Jan-27 06:28N 34°37' E 135°24'0 0.0
2015-Jan-27 05:28N 34°37' E 135°24'0 0.0
2015-Jan-27 04:22N 34°37' E 135°24'0 0.0
2015-Jan-27 03:16N 34°37' E 135°24'0 0.0
2015-Jan-27 02:28N 34°37' E 135°24'0 0.0
2015-Jan-27 01:28N 34°37' E 135°24'0 0.3
2015-Jan-27 00:33N 34°36' E 135°24'9 9.3
2015-Jan-26 23:33N 34°31' E 135°15'1615.8
2015-Jan-26 22:33N 34°20' E 135°01'1313.4
2015-Jan-26 21:33N 34°07' E 134°59'1210.6
2015-Jan-26 20:27N 33°55' E 134°57'  
Track history (hours):
 
Tides and Currents Weather Stations Pressure Air Temp Water Temp Dewpoint Dewpoint Depression Visibility Wind Speed Wind Dir Waves Ship Positions

Nocc Pamplona

Last reported at 2015-Jan-30 04:29 UTC. Time now 2015-Jan-30 04:51 UTC.
Position N 35°25' E 139°43'.

Length 177 m; draft 7.6 m.

Type: Cargo ship. MMSI: 257349000.

Date/timePositionNaut miles runAvg speedWind from/ knotsBaromVisibWave heightAir tempDewpointWater temp
2015-Jan-30 04:29N 35°25' E 139°43'0 0.0
2015-Jan-30 03:32N 35°25' E 139°43'0 0.0
2015-Jan-30 02:32N 35°25' E 139°43'0 0.0
2015-Jan-30 01:32N 35°25' E 139°43'0 0.1
2015-Jan-30 00:32N 35°25' E 139°43'0 0.0
2015-Jan-29 23:32N 35°25' E 139°43'0 0.0
2015-Jan-29 22:32N 35°25' E 139°43'0 0.1
2015-Jan-29 21:32N 35°25' E 139°43'0 0.0
2015-Jan-29 20:32N 35°25' E 139°43'0 0.0
2015-Jan-29 19:32N 35°25' E 139°43'0 0.1
2015-Jan-29 18:32N 35°25' E 139°43'0 0.0
2015-Jan-29 17:32N 35°25' E 139°43'0 0.0
2015-Jan-29 16:32N 35°25' E 139°43'0 0.0
2015-Jan-29 15:32N 35°25' E 139°43'0 0.0
2015-Jan-29 14:32N 35°25' E 139°43'0 0.0
2015-Jan-29 13:32N 35°25' E 139°43'0 0.0
2015-Jan-29 12:32N 35°25' E 139°43'0 0.0
2015-Jan-29 11:29N 35°25' E 139°43'0 0.0
2015-Jan-29 10:32N 35°25' E 139°43'0 0.0
2015-Jan-29 09:32N 35°25' E 139°43'0 0.1
2015-Jan-29 08:33N 35°25' E 139°43'1 1.2
2015-Jan-29 07:34N 35°26' E 139°42'1 1.1
2015-Jan-29 06:32N 35°27' E 139°41'0 0.0
2015-Jan-29 05:32N 35°27' E 139°41'0 0.0
2015-Jan-29 04:32N 35°27' E 139°41'0 0.0
2015-Jan-29 03:32N 35°27' E 139°41'0 0.0
2015-Jan-29 02:32N 35°27' E 139°41'0 0.0
2015-Jan-29 01:32N 35°27' E 139°41'0 0.0
2015-Jan-29 00:26N 35°27' E 139°41'0 0.0
2015-Jan-28 23:32N 35°27' E 139°41'0 0.0
2015-Jan-28 22:32N 35°27' E 139°41'0 0.5
2015-Jan-28 21:33N 35°27' E 139°42'5 5.1
2015-Jan-28 20:33N 35°22' E 139°43'1111.1
2015-Jan-28 19:33N 35°11' E 139°47'9 9.1
2015-Jan-28 18:33N 35°02' E 139°44'1010.4
2015-Jan-28 17:33N 34°53' E 139°39'1613.1
2015-Jan-28 16:21N 34°39' E 139°29'228 7.6
2015-Jan-27 10:09N 33°59' E 134°57'914.8
2015-Jan-27 09:32N 34°09' E 134°58'1515.4
2015-Jan-27 08:33N 34°23' E 135°02'1818.2
2015-Jan-27 07:33N 34°35' E 135°19'5 4.4
2015-Jan-27 06:28N 34°37' E 135°24'0 0.0
2015-Jan-27 05:28N 34°37' E 135°24'0 0.0
2015-Jan-27 04:22N 34°37' E 135°24'0 0.0
2015-Jan-27 03:16N 34°37' E 135°24'0 0.0
2015-Jan-27 02:28N 34°37' E 135°24'0 0.0
2015-Jan-27 01:28N 34°37' E 135°24'0 0.3
2015-Jan-27 00:33N 34°36' E 135°24'9 9.3
2015-Jan-26 23:33N 34°31' E 135°15'1615.8
2015-Jan-26 22:33N 34°20' E 135°01'1313.4
2015-Jan-26 21:33N 34°07' E 134°59'1210.6
2015-Jan-26 20:27N 33°55' E 134°57'  

Dump ship's entire track history